CheckWX is a tool to help pilots better visualize weather data.  It is not intended as a substitute for an official pre-flight weather briefing.

00:49:15 UTC

KTOC METAR
Toccoa Rg Letourneau Field Airport
Toccoa, Georgia, USA
Current

34 mins ago

KTOC 280015Z AUTO 00000KT 10SM OVC024 21/19 A3000 RMK AO2 T02090191
Observed
May-28 @ 00:15 UTC
Visibility
Flight Rules
MVFR
Cloud Levels
  • Overcast at 2,400' AGL
Temperature
21°C / 70°F
Dewpoint
19°C / 66°F
Humidity
88%
Altimeter
30" Hg
Pressure
1015.92 hPa
Previous

54 mins ago

KTOC 272355Z AUTO 00000KT 10SM -DZ OVC024 21/19 A2999 RMK AO2 T02100186 10213 20200
Observed
May-27 @ 23:55 UTC
Visibility
Flight Rules
MVFR
Conditions
Light Drizzle
Cloud Levels
  • Overcast at 2,400' AGL
Temperature
21°C / 70°F
Dewpoint
19°C / 66°F
Humidity
88%
Altimeter
29.99" Hg
Pressure
1015.62 hPa
Previous

1 hour ago

KTOC 272335Z AUTO 00000KT 10SM -RA OVC022 21/19 A2999 RMK AO2 T02120185
Observed
May-27 @ 23:35 UTC
Visibility
Flight Rules
MVFR
Conditions
Light Rain
Cloud Levels
  • Overcast at 2,200' AGL
Temperature
21°C / 70°F
Dewpoint
18°C / 64°F
Humidity
83%
Altimeter
29.99" Hg
Pressure
1015.62 hPa